Time;durP1;ratioP1;P1;durP2;ratioP2;P2;SDS_P1;SDS_P2;PMS_P1;PMS_P2;Temp;Humidity;BMP_temperature;BMP_pressure;BME280_temperature;BME280_humidity;BME280_pressure;Samples;Min_cycle;Max_cycle;Signal;HPM_P1;HPM_P2
2021/10/06 00:01:01;;;;;;;2.65;1.58;;;;;;;10.96;66.16;99469.59;4988236;28;20100;-45
2021/10/06 00:03:28;;;;;;;2.15;0.90;;;;;;;10.96;65.61;99467.00;4988152;28;20046;-47
2021/10/06 00:05:54;;;;;;;3.03;1.40;;;;;;;10.95;65.87;99464.41;4986556;28;20046;-47
2021/10/06 00:08:21;;;;;;;3.40;1.05;;;;;;;10.96;66.21;99476.50;4987680;28;20042;-48
2021/10/06 00:10:48;;;;;;;4.30;1.77;;;;;;;10.99;66.33;99476.44;4982294;28;20100;-46
2021/10/06 00:13:15;;;;;;;4.72;1.30;;;;;;;10.98;65.59;99480.75;4986915;28;20112;-45
2021/10/06 00:15:45;;;;;;;4.15;2.20;;;;;;;11.01;66.21;99485.06;4985194;28;20054;-45
2021/10/06 00:18:14;;;;;;;2.25;1.17;;;;;;;10.99;66.34;99487.69;4988434;28;20132;-45
2021/10/06 00:20:42;;;;;;;5.65;1.42;;;;;;;11.01;65.61;99480.72;4985551;28;20723;-47
2021/10/06 00:23:10;;;;;;;3.15;1.30;;;;;;;11.02;65.95;99474.66;4986783;28;20077;-44
2021/10/06 00:25:37;;;;;;;3.33;3.03;;;;;;;11.00;65.42;99494.56;4986577;28;20046;-45
2021/10/06 00:28:04;;;;;;;6.80;1.70;;;;;;;11.01;65.98;99495.44;4985252;28;20700;-46
2021/10/06 00:30:31;;;;;;;4.82;1.73;;;;;;;10.99;65.69;99503.22;4988069;28;20050;-47
2021/10/06 00:32:58;;;;;;;3.90;1.25;;;;;;;11.01;66.27;99506.66;4983488;28;20066;-47
2021/10/06 00:35:25;;;;;;;1.85;0.95;;;;;;;11.00;66.16;99507.53;4988161;28;20050;-45
2021/10/06 00:37:52;;;;;;;1.83;1.67;;;;;;;11.03;66.14;99504.91;4987208;28;20097;-44
2021/10/06 00:40:18;;;;;;;4.03;1.17;;;;;;;11.01;66.23;99509.22;4984962;28;20097;-46
2021/10/06 00:42:45;;;;;;;2.55;1.95;;;;;;;11.04;65.86;99516.09;4982806;28;20093;-46
2021/10/06 00:45:12;;;;;;;3.10;1.65;;;;;;;11.04;65.55;99511.78;4987532;28;20096;-47
2021/10/06 00:47:38;;;;;;;2.95;1.23;;;;;;;11.05;66.36;99520.44;4989086;28;20140;-47
2021/10/06 00:50:06;;;;;;;4.38;0.90;;;;;;;11.07;65.90;99530.78;4984936;28;21080;-47
2021/10/06 00:52:32;;;;;;;5.40;1.88;;;;;;;11.05;65.68;99526.47;4986033;28;20054;-47
2021/10/06 00:54:59;;;;;;;5.80;1.27;;;;;;;11.08;65.76;99528.16;4986977;28;20050;-46
2021/10/06 00:57:25;;;;;;;5.13;1.48;;;;;;;11.07;66.53;99533.38;4985494;28;20058;-44
2021/10/06 00:59:52;;;;;;;2.03;1.33;;;;;;;11.11;66.04;99529.88;4989799;28;20166;-45
2021/10/06 01:02:19;;;;;;;5.82;1.25;;;;;;;11.07;65.45;99531.63;4987920;28;20550;-46
2021/10/06 01:04:45;;;;;;;3.70;1.33;;;;;;;11.09;65.61;99534.19;4987335;28;20420;-46
2021/10/06 01:07:12;;;;;;;4.70;1.20;;;;;;;11.09;65.81;99529.00;4987457;28;20038;-44
2021/10/06 01:09:39;;;;;;;3.15;1.23;;;;;;;11.08;65.25;99533.31;4983955;28;20107;-46
2021/10/06 01:12:06;;;;;;;3.33;1.15;;;;;;;11.08;65.31;99537.66;4986309;28;20054;-45
2021/10/06 01:14:33;;;;;;;7.43;2.65;;;;;;;11.07;65.67;99529.03;4986926;28;20152;-46
2021/10/06 01:16:59;;;;;;;3.35;1.58;;;;;;;11.05;65.51;99543.75;4985762;28;20043;-45
2021/10/06 01:19:29;;;;;;;3.78;2.30;;;;;;;11.08;65.73;99529.91;4987737;28;20429;-46
2021/10/06 01:21:57;;;;;;;6.95;1.73;;;;;;;11.07;65.55;99533.38;4984164;28;20058;-45
2021/10/06 01:24:27;;;;;;;2.97;1.23;;;;;;;11.03;65.92;99536.00;5002013;28;20486;-45
2021/10/06 01:26:54;;;;;;;3.10;1.35;;;;;;;11.04;66.12;99537.72;4988478;28;20050;-45
2021/10/06 01:29:20;;;;;;;4.97;1.90;;;;;;;11.04;65.51;99545.47;4987638;28;20116;-45
2021/10/06 01:31:48;;;;;;;4.45;1.58;;;;;;;11.04;65.89;99552.38;4984813;28;20058;-45
2021/10/06 01:34:17;;;;;;;5.15;1.75;;;;;;;11.03;65.34;99561.91;5002095;28;20508;-46
2021/10/06 01:36:48;;;;;;;4.03;1.85;;;;;;;11.03;65.73;99568.81;4987861;28;20054;-47
2021/10/06 01:39:16;;;;;;;1.90;1.52;;;;;;;11.02;66.12;99580.91;4985791;28;20049;-46
2021/10/06 01:41:43;;;;;;;5.15;2.17;;;;;;;11.01;65.94;99574.03;4987152;28;20058;-48
2021/10/06 01:44:18;;;;;;;3.80;1.58;;;;;;;10.99;65.74;99599.13;4986211;28;20104;-44
2021/10/06 01:46:46;;;;;;;5.88;1.58;;;;;;;10.99;65.77;99580.97;4987066;28;20125;-46
2021/10/06 01:49:12;;;;;;;2.25;1.58;;;;;;;10.99;66.08;99588.75;5000978;28;20468;-45
2021/10/06 01:51:39;;;;;;;3.05;0.38;;;;;;;10.97;65.39;99597.41;4986255;28;20571;-45
2021/10/06 01:54:07;;;;;;;4.45;1.75;;;;;;;10.98;65.50;99604.31;4998563;28;20050;-44
2021/10/06 01:56:34;;;;;;;3.42;1.67;;;;;;;10.97;65.83;99618.97;4984917;28;20079;-44
2021/10/06 01:59:02;;;;;;;5.70;1.67;;;;;;;10.96;65.91;99617.28;4982732;28;20062;-45
2021/10/06 02:01:29;;;;;;;2.97;1.40;;;;;;;10.96;66.18;99627.66;4985915;28;20073;-46
2021/10/06 02:03:56;;;;;;;3.75;1.55;;;;;;;10.93;66.13;99617.31;4984387;28;20442;-46
2021/10/06 02:06:22;;;;;;;5.28;1.25;;;;;;;10.93;65.50;99622.50;4985497;28;20046;-45
2021/10/06 02:08:49;;;;;;;6.50;2.13;;;;;;;10.95;65.99;99625.94;4983736;28;20108;-45
2021/10/06 02:11:16;;;;;;;4.88;1.42;;;;;;;10.96;66.19;99627.66;4986301;28;20109;-45
2021/10/06 02:13:43;;;;;;;2.88;1.45;;;;;;;10.97;65.95;99636.28;4984730;28;20054;-45
2021/10/06 02:16:09;;;;;;;7.00;1.58;;;;;;;10.96;66.00;99638.00;4984287;28;20109;-46
2021/10/06 02:18:36;;;;;;;4.30;1.17;;;;;;;10.97;65.91;99637.13;4986632;28;20513;-45
2021/10/06 02:21:03;;;;;;;5.80;1.77;;;;;;;10.97;65.83;99639.72;4985824;28;20054;-46
2021/10/06 02:23:29;;;;;;;2.25;1.60;;;;;;;10.97;66.17;99647.50;4982776;28;20792;-46
2021/10/06 02:25:56;;;;;;;3.95;1.40;;;;;;;10.95;65.61;99646.66;4985168;28;20053;-45
2021/10/06 02:28:23;;;;;;;3.42;2.95;;;;;;;10.93;65.56;99649.28;4982321;28;20101;-45
2021/10/06 02:30:49;;;;;;;7.50;1.65;;;;;;;10.95;66.20;99641.47;4984553;28;20050;-49
2021/10/06 02:33:16;;;;;;;4.95;2.03;;;;;;;10.96;65.39;99644.91;4986342;28;20046;-47
2021/10/06 02:35:43;;;;;;;5.25;1.92;;;;;;;10.97;66.38;99660.44;4986068;28;20046;-44
2021/10/06 02:38:10;;;;;;;4.82;1.95;;;;;;;10.96;65.47;99661.31;4984706;28;20054;-45
2021/10/06 02:40:37;;;;;;;4.45;0.90;;;;;;;10.98;66.23;99658.72;4984609;28;20446;-45
2021/10/06 02:43:04;;;;;;;5.18;1.40;;;;;;;10.97;65.88;99652.66;4988837;28;20042;-44
2021/10/06 02:45:30;;;;;;;3.35;1.40;;;;;;;10.98;65.69;99656.97;4985140;28;20051;-45
2021/10/06 02:47:57;;;;;;;3.50;1.63;;;;;;;10.95;66.42;99664.81;4985456;28;20049;-45
2021/10/06 02:50:25;;;;;;;7.65;2.50;;;;;;;10.98;66.47;99662.16;4981596;28;20046;-45
2021/10/06 02:52:52;;;;;;;3.60;2.13;;;;;;;11.00;65.55;99677.69;4984978;28;20580;-47
2021/10/06 02:55:20;;;;;;;5.82;1.83;;;;;;;10.99;66.05;99689.81;4982264;28;20081;-45
2021/10/06 02:57:47;;;;;;;4.38;1.85;;;;;;;11.00;65.98;99681.16;4988747;28;20054;-46
2021/10/06 03:00:14;;;;;;;3.75;2.38;;;;;;;11.02;65.50;99678.53;4986755;28;20050;-47
2021/10/06 03:02:41;;;;;;;7.15;2.10;;;;;;;11.02;65.54;99678.53;4988818;28;20050;-45
2021/10/06 03:05:10;;;;;;;3.50;2.50;;;;;;;11.00;65.72;99686.34;4988243;28;20450;-45
2021/10/06 03:07:37;;;;;;;3.33;1.58;;;;;;;11.03;65.76;99686.31;4985815;28;20066;-45
2021/10/06 03:10:05;;;;;;;4.82;1.40;;;;;;;11.02;66.06;99689.75;4989644;28;20537;-44
2021/10/06 03:12:32;;;;;;;5.28;2.22;;;;;;;11.03;65.81;99686.31;4987572;28;20128;-46
2021/10/06 03:14:59;;;;;;;4.05;1.40;;;;;;;11.04;66.18;99682.84;4988627;28;20093;-45
2021/10/06 03:17:25;;;;;;;3.90;1.42;;;;;;;11.04;65.97;99688.00;4990501;28;20046;-46
2021/10/06 03:19:52;;;;;;;6.15;2.05;;;;;;;11.02;66.03;99694.94;4987942;28;20136;-45
2021/10/06 03:22:18;;;;;;;6.47;1.67;;;;;;;11.03;65.80;99707.03;4990529;28;20042;-45
2021/10/06 03:24:45;;;;;;;7.88;2.08;;;;;;;11.01;66.31;99708.78;4988026;28;20050;-44
2021/10/06 03:27:13;;;;;;;7.43;1.70;;;;;;;11.01;66.20;99716.53;4991029;28;20050;-46
2021/10/06 03:29:39;;;;;;;3.08;1.75;;;;;;;10.99;65.75;99715.72;4990238;28;20046;-45
2021/10/06 03:32:06;;;;;;;6.43;1.67;;;;;;;10.98;65.54;99708.81;4987748;28;20046;-46
2021/10/06 03:34:32;;;;;;;5.65;1.92;;;;;;;10.96;66.24;99726.13;4987865;28;20047;-45
2021/10/06 03:36:59;;;;;;;3.75;1.08;;;;;;;10.97;65.68;99721.81;4987143;28;20043;-46
2021/10/06 03:39:26;;;;;;;3.30;1.52;;;;;;;10.97;66.05;99733.00;4988866;28;20050;-46
2021/10/06 03:41:53;;;;;;;6.85;2.15;;;;;;;10.95;65.34;99724.41;4988145;28;20352;-46
2021/10/06 03:44:19;;;;;;;4.28;1.58;;;;;;;10.96;65.83;99741.66;4988888;28;20050;-44
2021/10/06 03:46:46;;;;;;;4.47;1.77;;;;;;;10.96;65.05;99746.84;4985641;28;20116;-46
2021/10/06 03:49:12;;;;;;;5.80;1.90;;;;;;;10.97;65.77;99748.56;4989454;28;20092;-46
2021/10/06 03:51:39;;;;;;;4.25;1.48;;;;;;;10.95;65.55;99750.31;4985894;28;20054;-46
2021/10/06 03:54:06;;;;;;;3.97;1.67;;;;;;;10.94;65.42;99758.94;4986749;28;20054;-46
2021/10/06 03:56:36;;;;;;;1.98;1.83;;;;;;;10.92;65.24;99755.53;4989485;28;20054;-48
2021/10/06 03:59:03;;;;;;;4.75;1.67;;;;;;;10.92;65.90;99765.88;4989440;28;20062;-46
2021/10/06 04:01:29;;;;;;;5.82;1.98;;;;;;;10.91;65.78;99774.53;4987994;28;20105;-45
2021/10/06 04:03:56;;;;;;;7.13;1.80;;;;;;;10.89;65.42;99781.44;4988369;28;20572;-45
2021/10/06 04:06:23;;;;;;;7.22;1.40;;;;;;;10.86;65.61;99786.66;4983718;28;20089;-46
2021/10/06 04:08:49;;;;;;;5.53;2.38;;;;;;;10.85;65.63;99791.00;4987998;28;20054;-47
2021/10/06 04:11:16;;;;;;;3.05;1.70;;;;;;;10.82;65.31;99785.84;4985257;28;20054;-47
2021/10/06 04:13:42;;;;;;;3.70;2.00;;;;;;;10.84;65.71;99799.63;4988405;28;20116;-45
2021/10/06 04:16:09;;;;;;;5.72;1.15;;;;;;;10.84;65.53;99803.97;4987278;28;20446;-47
2021/10/06 04:18:35;;;;;;;7.85;1.80;;;;;;;10.82;65.92;99805.69;4985336;28;20104;-44
2021/10/06 04:21:02;;;;;;;3.15;1.30;;;;;;;10.79;65.27;99807.44;4988174;28;20046;-45
2021/10/06 04:23:29;;;;;;;5.78;1.20;;;;;;;10.79;65.85;99807.44;4987502;28;20439;-45
2021/10/06 04:25:56;;;;;;;4.78;1.67;;;;;;;10.77;65.38;99818.66;4987249;28;20038;-48
2021/10/06 04:28:22;;;;;;;8.27;2.03;;;;;;;10.76;65.68;99823.00;4985432;28;20097;-46
2021/10/06 04:30:49;;;;;;;9.38;3.03;;;;;;;10.75;66.09;99831.66;4988242;28;20050;-47
2021/10/06 04:33:15;;;;;;;4.35;1.88;;;;;;;10.75;65.48;99841.16;4986410;28;20108;-45
2021/10/06 04:35:42;;;;;;;3.20;2.05;;;;;;;10.76;65.71;99845.44;4988725;28;20039;-46
2021/10/06 04:38:08;;;;;;;6.72;1.98;;;;;;;10.74;65.92;99850.63;4987862;28;20566;-45
2021/10/06 04:40:35;;;;;;;5.30;2.33;;;;;;;10.73;65.01;99843.75;4987642;28;20054;-46
2021/10/06 04:43:02;;;;;;;3.92;1.40;;;;;;;10.70;65.49;99846.34;4986825;28;20054;-45
2021/10/06 04:45:28;;;;;;;4.18;1.58;;;;;;;10.70;65.06;99848.94;4987384;28;20113;-46
2021/10/06 04:47:55;;;;;;;7.72;1.63;;;;;;;10.69;65.49;99854.13;4985591;28;20471;-48
2021/10/06 04:50:24;;;;;;;8.95;1.40;;;;;;;10.66;65.76;99855.00;4984009;28;20073;-45
2021/10/06 04:52:50;;;;;;;9.98;3.30;;;;;;;10.66;65.50;99867.97;4987903;28;20042;-46
2021/10/06 04:55:17;;;;;;;3.85;1.35;;;;;;;10.63;65.44;99870.56;4987515;28;20126;-47
2021/10/06 04:57:43;;;;;;;6.57;2.30;;;;;;;10.62;65.33;99874.03;4984974;28;20058;-50
2021/10/06 05:00:10;;;;;;;4.40;1.80;;;;;;;10.61;65.22;99885.25;4984234;28;20527;-45
2021/10/06 05:02:37;;;;;;;3.40;0.77;;;;;;;10.60;65.66;99883.56;4987914;28;20106;-47
2021/10/06 05:05:04;;;;;;;5.50;1.98;;;;;;;10.60;65.24;99883.56;4987620;28;20050;-46
2021/10/06 05:07:30;;;;;;;6.05;1.58;;;;;;;10.60;65.35;99883.56;4988827;28;20054;-46
2021/10/06 05:09:57;;;;;;;7.90;1.23;;;;;;;10.57;65.60;99888.75;4988676;28;20059;-47
2021/10/06 05:12:24;;;;;;;4.88;1.92;;;;;;;10.56;65.29;99892.19;4984496;28;21496;-45
2021/10/06 05:14:51;;;;;;;5.00;2.15;;;;;;;10.56;64.70;99887.00;4988851;28;20104;-45
2021/10/06 05:17:17;;;;;;;7.53;1.95;;;;;;;10.53;65.42;99890.47;4984160;28;20058;-45
2021/10/06 05:19:44;;;;;;;4.40;1.50;;;;;;;10.51;65.59;99900.84;4983983;28;20372;-45
2021/10/06 05:22:11;;;;;;;4.85;1.90;;;;;;;10.48;65.88;99906.06;4987856;28;20120;-50
2021/10/06 05:24:37;;;;;;;7.97;1.30;;;;;;;10.45;65.84;99908.66;4987249;28;20477;-45
2021/10/06 05:27:04;;;;;;;5.68;1.83;;;;;;;10.47;65.58;99925.03;4985796;28;20541;-45
2021/10/06 05:29:35;;;;;;;6.05;1.95;;;;;;;10.47;65.54;99929.38;4986332;28;20054;-47
2021/10/06 05:32:04;;;;;;;5.70;1.50;;;;;;;10.46;65.50;99938.84;4983440;28;20100;-46
2021/10/06 05:34:32;;;;;;;3.20;1.70;;;;;;;10.44;65.53;99950.06;4986369;28;20046;-44
2021/10/06 05:36:59;;;;;;;5.97;1.83;;;;;;;10.44;65.37;99948.34;4983403;28;20050;-46
2021/10/06 05:39:26;;;;;;;7.43;1.50;;;;;;;10.46;65.66;99956.97;4986945;28;20054;-45
2021/10/06 05:41:52;;;;;;;5.93;2.15;;;;;;;10.43;65.51;99954.34;4988017;28;20045;-45
2021/10/06 05:44:19;;;;;;;3.00;1.08;;;;;;;10.42;65.32;99960.41;4985637;28;20108;-46
2021/10/06 05:46:45;;;;;;;3.88;1.98;;;;;;;10.42;65.37;99950.06;4985497;28;20446;-46
2021/10/06 05:49:13;;;;;;;3.85;1.65;;;;;;;10.40;65.47;99951.78;4987677;28;20462;-44
2021/10/06 05:51:40;;;;;;;3.35;1.05;;;;;;;10.38;65.53;99966.47;4985987;28;20415;-46
2021/10/06 05:54:07;;;;;;;4.47;1.80;;;;;;;10.39;65.64;99969.06;4987416;28;20105;-45
2021/10/06 05:56:34;;;;;;;4.38;2.15;;;;;;;10.39;65.55;99975.94;4983419;28;20046;-45
2021/10/06 05:59:00;;;;;;;3.65;1.52;;;;;;;10.40;65.30;99985.44;4984937;28;20105;-45
2021/10/06 06:01:28;;;;;;;9.43;2.58;;;;;;;10.38;65.16;99982.00;4986085;28;20554;-45
2021/10/06 06:03:55;;;;;;;3.65;1.73;;;;;;;10.37;66.01;99988.06;4984930;28;20150;-47
2021/10/06 06:06:22;;;;;;;5.05;1.58;;;;;;;10.36;65.93;99999.25;4988671;28;20534;-45
2021/10/06 06:08:48;;;;;;;8.43;1.90;;;;;;;10.37;65.58;100008.78;4982526;28;20050;-45
2021/10/06 06:11:15;;;;;;;3.30;1.42;;;;;;;10.36;65.17;100025.16;4984391;28;20074;-46
2021/10/06 06:13:42;;;;;;;5.28;2.00;;;;;;;10.37;65.45;100026.88;4988129;28;20450;-44
2021/10/06 06:16:09;;;;;;;8.98;2.15;;;;;;;10.38;65.19;100036.38;4985908;28;20050;-45
2021/10/06 06:18:35;;;;;;;7.43;2.08;;;;;;;10.36;65.35;100041.56;4983823;28;20554;-45
2021/10/06 06:21:02;;;;;;;3.20;1.48;;;;;;;10.37;65.61;100042.41;4985982;28;20597;-44
2021/10/06 06:23:31;;;;;;;5.70;1.83;;;;;;;10.35;65.67;100049.31;4986562;28;20058;-45
2021/10/06 06:25:58;;;;;;;6.57;1.65;;;;;;;10.35;65.81;100051.91;4985614;28;20104;-45
2021/10/06 06:28:25;;;;;;;8.05;1.98;;;;;;;10.33;64.97;100057.09;4983047;28;20046;-45
2021/10/06 06:30:52;;;;;;;3.75;1.67;;;;;;;10.33;65.45;100064.84;4983332;28;20050;-44
2021/10/06 06:33:19;;;;;;;4.85;2.00;;;;;;;10.32;65.74;100059.66;4984654;28;20124;-46
2021/10/06 06:35:45;;;;;;;4.00;1.85;;;;;;;10.30;65.44;100059.66;4982657;28;20112;-44
2021/10/06 06:38:12;;;;;;;5.65;1.73;;;;;;;10.27;64.91;100068.31;4983182;28;20043;-46
2021/10/06 06:40:41;;;;;;;3.00;1.15;;;;;;;10.27;65.53;100075.22;4982896;28;20050;-44
2021/10/06 06:43:09;;;;;;;7.70;1.95;;;;;;;10.26;65.32;100070.91;4983566;28;20546;-45
2021/10/06 06:45:36;;;;;;;5.07;1.27;;;;;;;10.27;65.46;100085.59;4982139;28;20117;-44
2021/10/06 06:48:04;;;;;;;5.97;1.00;;;;;;;10.24;65.89;100083.84;4983018;28;20458;-44
2021/10/06 06:50:44;;;;;;;2.33;1.50;;;;;;;10.26;65.35;100100.25;4981908;28;20133;-45
2021/10/06 06:53:11;;;;;;;4.85;1.88;;;;;;;10.24;65.35;100093.34;4997988;28;20173;-44
2021/10/06 06:55:37;;;;;;;5.88;1.50;;;;;;;10.24;65.92;100099.38;4981414;28;20051;-45
2021/10/06 06:58:04;;;;;;;3.33;1.55;;;;;;;10.22;66.36;100101.09;4982127;28;20038;-44
2021/10/06 07:00:31;;;;;;;3.47;1.50;;;;;;;10.21;65.95;100106.28;4983844;28;20058;-45
2021/10/06 07:02:57;;;;;;;4.05;2.00;;;;;;;10.21;65.41;100122.69;4983772;28;20057;-47
2021/10/06 07:05:28;;;;;;;4.05;2.00;;;;;;;10.21;65.39;100124.41;4980178;28;20062;-44
2021/10/06 07:07:55;;;;;;;4.45;1.65;;;;;;;10.21;65.37;100135.63;4979324;28;20051;-44
2021/10/06 07:10:22;;;;;;;5.35;1.55;;;;;;;10.21;65.42;100135.63;4983586;28;20046;-45
2021/10/06 07:12:49;;;;;;;6.57;1.48;;;;;;;10.23;65.65;100125.28;4977718;28;20090;-44
2021/10/06 07:15:16;;;;;;;3.97;1.45;;;;;;;10.24;65.86;100124.41;4982624;28;20676;-44
2021/10/06 07:17:43;;;;;;;4.88;2.17;;;;;;;10.22;65.60;100127.00;4979903;28;20109;-45
2021/10/06 07:20:09;;;;;;;5.47;1.52;;;;;;;10.23;65.52;100144.25;4983047;28;20120;-44
2021/10/06 07:22:36;;;;;;;5.80;2.58;;;;;;;10.23;65.48;100139.06;4979058;28;20118;-45
2021/10/06 07:25:04;;;;;;;5.55;1.77;;;;;;;10.23;65.81;100139.06;4982414;28;20051;-45
2021/10/06 07:27:32;;;;;;;3.67;2.17;;;;;;;10.25;66.29;100147.72;4981543;28;20050;-45
2021/10/06 07:30:00;;;;;;;5.53;1.63;;;;;;;10.24;66.60;100161.50;4982867;28;20058;-45
2021/10/06 07:32:26;;;;;;;7.70;2.05;;;;;;;10.24;66.42;100171.84;4982761;28;20050;-45
2021/10/06 07:34:53;;;;;;;5.78;2.00;;;;;;;10.27;65.69;100171.84;4980947;28;20120;-45
2021/10/06 07:37:20;;;;;;;4.72;1.90;;;;;;;10.27;66.36;100169.28;4982277;28;20108;-46
2021/10/06 07:39:47;;;;;;;1.95;1.25;;;;;;;10.28;66.49;100178.78;4980507;28;20104;-45
2021/10/06 07:42:15;;;;;;;6.53;1.65;;;;;;;10.31;66.20;100177.03;4983463;28;20059;-46
2021/10/06 07:44:43;;;;;;;5.85;2.15;;;;;;;10.35;66.24;100178.75;4986332;28;20069;-45
2021/10/06 07:47:10;;;;;;;5.82;1.50;;;;;;;10.39;66.01;100170.13;4984509;28;20050;-45
2021/10/06 07:49:37;;;;;;;5.80;1.73;;;;;;;10.42;66.36;100177.91;4980585;28;20105;-45
2021/10/06 07:52:04;;;;;;;7.00;1.70;;;;;;;10.45;67.01;100185.72;4978694;28;20062;-45
2021/10/06 07:54:31;;;;;;;4.57;2.00;;;;;;;10.48;66.69;100184.84;4981200;28;20105;-46
2021/10/06 07:56:57;;;;;;;5.80;1.58;;;;;;;10.52;67.22;100192.63;4984262;28;20101;-45
2021/10/06 07:59:24;;;;;;;6.18;1.67;;;;;;;10.60;66.83;100194.34;4983081;28;20046;-45
2021/10/06 08:01:51;;;;;;;7.70;2.03;;;;;;;10.63;66.35;100199.50;4980613;28;20062;-46
2021/10/06 08:04:18;;;;;;;4.50;1.40;;;;;;;10.66;66.39;100199.50;4981615;28;20046;-44
2021/10/06 08:06:44;;;;;;;7.40;2.33;;;;;;;10.73;67.03;100211.59;4979790;28;20546;-44
2021/10/06 08:09:16;;;;;;;8.48;1.70;;;;;;;10.78;66.81;100217.63;4978751;28;20089;-46
2021/10/06 08:11:43;;;;;;;9.43;2.17;;;;;;;10.86;67.24;100216.75;4983608;28;20077;-45
2021/10/06 08:14:09;;;;;;;5.20;2.03;;;;;;;10.91;67.35;100220.22;4983430;28;20077;-47
2021/10/06 08:16:36;;;;;;;4.95;2.10;;;;;;;10.96;67.54;100228.84;4984336;28;20050;-46
2021/10/06 08:19:03;;;;;;;2.35;1.60;;;;;;;11.05;67.38;100236.59;4986933;28;20058;-46
2021/10/06 08:21:29;;;;;;;5.90;2.25;;;;;;;11.12;67.61;100242.66;4985569;28;20116;-45
2021/10/06 08:23:56;;;;;;;6.93;2.13;;;;;;;11.19;67.50;100248.69;4986873;28;20065;-49
2021/10/06 08:26:23;;;;;;;4.53;1.88;;;;;;;11.25;67.63;100251.25;4988304;28;20170;-45
2021/10/06 08:28:49;;;;;;;6.57;1.73;;;;;;;11.32;67.88;100246.94;4986221;28;20124;-45
2021/10/06 08:31:16;;;;;;;3.83;1.73;;;;;;;11.39;66.79;100248.63;4985128;28;20136;-45
2021/10/06 08:33:43;;;;;;;4.15;2.45;;;;;;;11.46;67.62;100254.66;4985321;28;20054;-46
2021/10/06 08:36:09;;;;;;;5.25;2.08;;;;;;;11.54;66.48;100257.22;4983872;28;20050;-46
2021/10/06 08:38:37;;;;;;;7.13;2.15;;;;;;;11.61;66.64;100258.94;4983992;28;20120;-45
2021/10/06 08:41:04;;;;;;;5.60;1.90;;;;;;;11.64;66.03;100255.47;4982593;28;20104;-49
2021/10/06 08:43:31;;;;;;;6.47;2.10;;;;;;;11.66;66.16;100272.75;4985613;28;20109;-46
2021/10/06 08:45:58;;;;;;;4.57;1.75;;;;;;;11.70;66.52;100252.84;4985805;28;20810;-45
2021/10/06 08:48:27;;;;;;;2.55;1.20;;;;;;;11.73;66.77;100264.94;4987505;28;20046;-45
2021/10/06 08:50:54;;;;;;;4.15;1.70;;;;;;;11.76;66.58;100260.59;4985106;28;20124;-46
2021/10/06 08:53:41;;;;;;;5.03;1.95;;;;;;;11.80;65.68;100270.13;4983941;28;20078;-49
2021/10/06 08:56:08;;;;;;;5.35;1.67;;;;;;;11.85;65.46;100272.66;4985526;28;20042;-46
2021/10/06 08:58:34;;;;;;;5.22;0.95;;;;;;;11.87;65.35;100270.06;4982449;28;20814;-46
2021/10/06 09:01:01;;;;;;;5.05;1.65;;;;;;;11.91;66.56;100287.34;4986734;28;20182;-47
2021/10/06 09:03:30;;;;;;;3.08;1.63;;;;;;;11.92;66.11;100289.09;4983577;28;20459;-46
2021/10/06 09:06:07;;;;;;;3.00;1.40;;;;;;;11.95;66.30;100291.66;4988528;28;20491;-48
2021/10/06 09:08:35;;;;;;;4.68;1.17;;;;;;;12.01;64.96;100298.56;4985462;28;20054;-47
2021/10/06 09:11:04;;;;;;;3.80;1.27;;;;;;;12.06;65.95;100297.69;4984987;28;20046;-46
2021/10/06 09:13:34;;;;;;;3.35;1.35;;;;;;;12.13;65.74;100305.47;4985839;28;20651;-47
2021/10/06 09:16:01;;;;;;;3.10;1.27;;;;;;;12.21;66.28;100306.28;4984535;28;20050;-47
2021/10/06 09:18:30;;;;;;;5.25;1.55;;;;;;;12.28;65.95;100307.97;4987581;28;20093;-44
2021/10/06 09:20:59;;;;;;;2.90;0.82;;;;;;;12.38;66.03;100323.50;4985592;28;20466;-46
2021/10/06 09:23:27;;;;;;;4.47;1.38;;;;;;;12.47;65.32;100329.50;4985701;28;20490;-45
2021/10/06 09:26:04;;;;;;;8.43;1.73;;;;;;;12.58;65.12;100336.38;4986358;28;20669;-46
2021/10/06 09:28:41;;;;;;;5.00;1.95;;;;;;;12.70;64.32;100331.09;4984959;28;20573;-47
2021/10/06 09:31:12;;;;;;;6.45;1.48;;;;;;;12.87;64.24;100344.84;4985782;28;20054;-47
2021/10/06 09:33:44;;;;;;;6.35;1.42;;;;;;;13.05;63.98;100347.31;4982601;28;20050;-49
2021/10/06 09:36:17;;;;;;;5.95;1.48;;;;;;;13.22;64.76;100338.50;4983653;28;20734;-46
2021/10/06 09:38:54;;;;;;;3.95;1.25;;;;;;;13.43;63.35;100357.38;4985431;28;20491;-46
2021/10/06 09:41:34;;;;;;;1.77;1.08;;;;;;;13.66;63.56;100364.13;4985330;28;20046;-46
2021/10/06 09:44:09;;;;;;;5.32;1.52;;;;;;;13.91;62.44;100374.28;5000392;28;20051;-49
2021/10/06 09:46:51;;;;;;;2.45;1.08;;;;;;;14.13;62.14;100375.75;4999300;28;20451;-47
2021/10/06 09:49:23;;;;;;;4.00;1.35;;;;;;;14.36;60.46;100371.97;4984181;28;20039;-47
2021/10/06 09:51:50;;;;;;;2.55;0.98;;;;;;;14.56;60.50;100378.66;4981518;28;20116;-47
2021/10/06 09:54:19;;;;;;;7.68;2.65;;;;;;;14.76;60.07;100375.75;4982887;28;20050;-47
2021/10/06 09:56:49;;;;;;;2.35;0.93;;;;;;;14.96;59.08;100372.03;4984230;28;20042;-46
2021/10/06 09:59:16;;;;;;;4.65;1.42;;;;;;;15.18;59.39;100381.25;4985382;28;20046;-46
2021/10/06 10:01:46;;;;;;;6.55;2.30;;;;;;;15.37;59.01;100381.81;4984790;28;20101;-48
2021/10/06 10:04:13;;;;;;;6.22;1.95;;;;;;;15.55;58.27;100385.84;4983114;28;20718;-47
2021/10/06 10:06:40;;;;;;;5.97;2.25;;;;;;;15.68;57.40;100382.09;4985675;28;20053;-50
2021/10/06 10:09:09;;;;;;;6.80;1.80;;;;;;;15.83;57.55;100385.31;4999765;28;20476;-46
2021/10/06 10:11:38;;;;;;;5.38;2.20;;;;;;;15.96;57.70;100395.56;4984213;28;20106;-49
2021/10/06 10:14:07;;;;;;;5.78;1.33;;;;;;;16.09;57.69;100391.81;4986484;28;20097;-48
2021/10/06 10:16:38;;;;;;;3.05;1.67;;;;;;;16.22;56.77;100391.56;4977145;28;20050;-47
2021/10/06 10:19:09;;;;;;;2.80;1.45;;;;;;;16.32;56.68;100403.56;4984542;28;20045;-49
2021/10/06 10:21:40;;;;;;;7.53;2.15;;;;;;;16.41;56.53;100408.56;4982563;28;20054;-48
2021/10/06 10:24:14;;;;;;;4.72;1.98;;;;;;;16.48;55.88;100413.69;4986679;28;20049;-50
2021/10/06 10:27:03;;;;;;;5.43;1.80;;;;;;;16.54;55.11;100429.22;4986334;28;20046;-48
2021/10/06 10:29:50;;;;;;;5.80;1.55;;;;;;;16.56;55.59;100427.44;4996716;28;20720;-47
2021/10/06 10:32:20;;;;;;;6.63;1.67;;;;;;;16.58;55.08;100441.34;4983394;28;20050;-46
2021/10/06 10:35:05;;;;;;;;;;;;;;;16.61;54.71;100437.81;4995769;28;20129;-48
2021/10/06 10:38:09;;;;;;;6.00;2.00;;;;;;;16.59;54.53;100453.53;4986527;28;19922;-49
2021/10/06 10:40:38;;;;;;;1.98;1.63;;;;;;;16.53;54.95;100443.19;4983204;28;20058;-47
2021/10/06 10:43:10;;;;;;;3.75;1.95;;;;;;;16.47;54.62;100446.81;4981564;28;20132;-47
2021/10/06 10:46:11;;;;;;;3.88;1.75;;;;;;;16.47;54.41;100448.53;4982407;28;20124;-49
2021/10/06 10:49:01;;;;;;;3.42;1.67;;;;;;;16.39;54.46;100457.44;4985002;28;20128;-50
2021/10/06 10:51:49;;;;;;;3.33;1.30;;;;;;;16.38;55.00;100460.91;4983851;28;20069;-49
2021/10/06 10:54:30;;;;;;;5.00;2.72;;;;;;;16.31;54.43;100475.00;4983676;28;20046;-48
2021/10/06 10:57:03;;;;;;;3.05;1.58;;;;;;;16.31;55.33;100472.38;4980828;28;20051;-50
2021/10/06 10:59:43;;;;;;;5.30;1.50;;;;;;;16.26;54.77;100471.63;4983002;28;20128;-48
2021/10/06 11:02:32;;;;;;;4.13;2.72;;;;;;;16.23;55.13;100471.69;4981563;28;20121;-50
2021/10/06 11:05:03;;;;;;;4.22;1.48;;;;;;;16.24;54.97;100469.03;4982211;28;20066;-50
2021/10/06 11:07:31;;;;;;;6.68;1.85;;;;;;;16.22;55.33;100475.19;4979554;28;20046;-48
2021/10/06 11:10:14;;;;;;;8.55;1.65;;;;;;;16.19;54.86;100476.97;4979436;28;20530;-50
2021/10/06 11:12:53;;;;;;;5.75;2.00;;;;;;;16.18;55.44;100480.47;4980963;28;20105;-46
2021/10/06 11:15:23;;;;;;;3.58;1.60;;;;;;;16.17;55.12;100473.53;4988436;28;20816;-49
2021/10/06 11:18:12;;;;;;;6.05;1.98;;;;;;;16.14;55.27;100468.34;4983978;28;20077;-50
2021/10/06 11:20:44;;;;;;;4.38;1.52;;;;;;;16.14;55.53;100467.50;5002019;28;20077;-51
2021/10/06 11:23:42;;;;;;;6.15;2.10;;;;;;;16.14;55.24;100472.75;4988802;28;20105;-48
2021/10/06 11:26:13;;;;;;;4.68;2.50;;;;;;;16.11;55.12;100468.41;4977254;28;20434;-51
2021/10/06 11:28:44;;;;;;;5.40;2.53;;;;;;;16.12;54.79;100479.72;4988419;28;20530;-47
2021/10/06 11:31:13;;;;;;;3.33;1.75;;;;;;;16.08;53.90;100471.09;5002748;28;21403;-48
2021/10/06 11:33:40;;;;;;;3.70;1.73;;;;;;;16.09;54.17;100479.78;4988799;28;20046;-47
2021/10/06 11:36:11;;;;;;;4.20;1.60;;;;;;;16.06;54.59;100478.09;4988569;28;20054;-47